EDLP/PAD METAR and TAF weather

Enter ICAO airport designator
Station Type Date Time Source
EDLP METAR 2018/04/21 20:50 UTC NOAA

EDLP 212050Z 14004KT 090V150 CAVOK 13/08 Q1019


Station Type Date Time Source
EDLP Decoded METAR 2018/04/21 20:50 UTC NOAA

Paderborn / Lippstadt, Germany (EDLP) 51-37N 008-37E
Apr 21, 2018 - 04:50 PM EDT / 2018.04.21 2050 UTC
Wind: from the SE (140 degrees) at 5 MPH (4 KT) (direction variable):0
Visibility: greater than 7 mile(s):0
Temperature: 55 F (13 C)
Dew Point: 46 F (8 C)
Relative Humidity: 71%
Pressure (altimeter): 30.09 in. Hg (1019 hPa)
ob: EDLP 212050Z 14004KT 090V150 CAVOK 13/08 Q1019
cycle: 21

Station Type Date Time Source
EDLP TAF 2018/04/21 18:27 UTC NOAA

TAF EDLP 211700Z 2118/2218 06004KT CAVOK
BECMG 2123/2203 14006KT
BECMG 2209/2213 20007KT PROB40
TEMPO 2215/2218 23015G35KT TSRA SCT025CB


Example: see airport list